sensor_id;sensor_type;location;lat;lon;timestamp;pressure;altitude;pressure_sealevel;temperature;humidity
75089;BME280;63673;49.928;8.150;2024-02-04T00:00:26;1000.89;;;8.15;100
75089;BME280;63673;49.928;8.150;2024-02-04T00:01:28;1000.93;;;8.15;100
75089;BME280;63673;49.928;8.150;2024-02-04T00:02:29;1000.87;;;8.14;100
75089;BME280;63673;49.928;8.150;2024-02-04T00:03:31;1000.87;;;8.14;100
75089;BME280;63673;49.928;8.150;2024-02-04T00:04:33;1000.88;;;8.14;100
75089;BME280;63673;49.928;8.150;2024-02-04T00:05:35;1000.79;;;8.13;100
75089;BME280;63673;49.928;8.150;2024-02-04T00:06:36;1000.77;;;8.12;100
75089;BME280;63673;49.928;8.150;2024-02-04T00:07:38;1000.69;;;8.11;100
75089;BME280;63673;49.928;8.150;2024-02-04T00:08:40;1000.7;;;8.1;100
75089;BME280;63673;49.928;8.150;2024-02-04T00:09:41;1000.68;;;8.1;100
75089;BME280;63673;49.928;8.150;2024-02-04T00:10:43;1000.62;;;8.1;100
75089;BME280;63673;49.928;8.150;2024-02-04T00:11:45;1000.63;;;8.08;100
75089;BME280;63673;49.928;8.150;2024-02-04T00:12:47;1000.63;;;8.07;100
75089;BME280;63673;49.928;8.150;2024-02-04T00:13:49;1000.61;;;8.07;100
75089;BME280;63673;49.928;8.150;2024-02-04T00:14:50;1000.66;;;8.06;100
75089;BME280;63673;49.928;8.150;2024-02-04T00:15:52;1000.67;;;8.06;100
75089;BME280;63673;49.928;8.150;2024-02-04T00:16:54;1000.66;;;8.06;100
75089;BME280;63673;49.928;8.150;2024-02-04T00:17:55;1000.65;;;8.04;100
75089;BME280;63673;49.928;8.150;2024-02-04T00:18:57;1000.62;;;8.04;100
75089;BME280;63673;49.928;8.150;2024-02-04T00:19:59;1000.63;;;8.04;100
75089;BME280;63673;49.928;8.150;2024-02-04T00:21:01;1000.64;;;8.04;100
75089;BME280;63673;49.928;8.150;2024-02-04T00:22:02;1000.63;;;8.03;100
75089;BME280;63673;49.928;8.150;2024-02-04T00:23:04;1000.54;;;8.03;100
75089;BME280;63673;49.928;8.150;2024-02-04T00:24:06;1000.57;;;8.03;100
75089;BME280;63673;49.928;8.150;2024-02-04T00:25:08;1000.58;;;8.02;100
75089;BME280;63673;49.928;8.150;2024-02-04T00:26:09;1000.56;;;8.02;100
75089;BME280;63673;49.928;8.150;2024-02-04T00:27:11;1000.51;;;8.01;100
75089;BME280;63673;49.928;8.150;2024-02-04T00:28:13;1000.58;;;8.01;100
75089;BME280;63673;49.928;8.150;2024-02-04T00:29:15;1000.55;;;8;100
75089;BME280;63673;49.928;8.150;2024-02-04T00:30:16;1000.56;;;8;100
75089;BME280;63673;49.928;8.150;2024-02-04T00:31:18;1000.46;;;7.99;100
75089;BME280;63673;49.928;8.150;2024-02-04T00:32:20;1000.49;;;7.98;100
75089;BME280;63673;49.928;8.150;2024-02-04T00:33:22;1000.46;;;7.98;100
75089;BME280;63673;49.928;8.150;2024-02-04T00:34:23;1000.49;;;7.96;100
75089;BME280;63673;49.928;8.150;2024-02-04T00:35:25;1000.42;;;7.96;100
75089;BME280;63673;49.928;8.150;2024-02-04T00:36:27;1000.48;;;7.96;100
75089;BME280;63673;49.928;8.150;2024-02-04T00:37:28;1000.37;;;7.96;100
75089;BME280;63673;49.928;8.150;2024-02-04T00:38:30;1000.39;;;7.95;100
75089;BME280;63673;49.928;8.150;2024-02-04T00:39:32;1000.36;;;7.94;100
75089;BME280;63673;49.928;8.150;2024-02-04T00:40:33;1000.34;;;7.94;100
75089;BME280;63673;49.928;8.150;2024-02-04T00:41:35;1000.32;;;7.94;100
75089;BME280;63673;49.928;8.150;2024-02-04T00:42:37;1000.39;;;7.94;100
75089;BME280;63673;49.928;8.150;2024-02-04T00:43:39;1000.4;;;7.93;100
75089;BME280;63673;49.928;8.150;2024-02-04T00:44:40;1000.36;;;7.93;100
75089;BME280;63673;49.928;8.150;2024-02-04T00:45:42;1000.34;;;7.93;100
75089;BME280;63673;49.928;8.150;2024-02-04T00:46:44;1000.24;;;7.93;100
75089;BME280;63673;49.928;8.150;2024-02-04T00:47:46;1000.31;;;7.93;100
75089;BME280;63673;49.928;8.150;2024-02-04T00:48:47;1000.27;;;7.93;100
75089;BME280;63673;49.928;8.150;2024-02-04T00:49:49;1000.31;;;7.94;100
75089;BME280;63673;49.928;8.150;2024-02-04T00:50:51;1000.29;;;7.94;100
75089;BME280;63673;49.928;8.150;2024-02-04T00:51:53;1000.27;;;7.94;100
75089;BME280;63673;49.928;8.150;2024-02-04T00:52:54;1000.25;;;7.94;100
75089;BME280;63673;49.928;8.150;2024-02-04T00:53:56;1000.25;;;7.93;100
75089;BME280;63673;49.928;8.150;2024-02-04T00:54:58;1000.25;;;7.94;100
75089;BME280;63673;49.928;8.150;2024-02-04T00:56:00;1000.26;;;7.95;100
75089;BME280;63673;49.928;8.150;2024-02-04T00:57:01;1000.26;;;7.94;100
75089;BME280;63673;49.928;8.150;2024-02-04T00:58:03;1000.2;;;7.94;100
75089;BME280;63673;49.928;8.150;2024-02-04T00:59:05;1000.26;;;7.95;100
75089;BME280;63673;49.928;8.150;2024-02-04T01:00:07;1000.24;;;7.95;100
75089;BME280;63673;49.928;8.150;2024-02-04T01:01:08;1000.26;;;7.95;100
75089;BME280;63673;49.928;8.150;2024-02-04T01:02:10;1000.26;;;7.95;100
75089;BME280;63673;49.928;8.150;2024-02-04T01:03:12;1000.27;;;7.95;100
75089;BME280;63673;49.928;8.150;2024-02-04T01:04:13;1000.28;;;7.95;100
75089;BME280;63673;49.928;8.150;2024-02-04T01:05:15;1000.31;;;7.95;100
75089;BME280;63673;49.928;8.150;2024-02-04T01:06:17;1000.25;;;7.95;100
75089;BME280;63673;49.928;8.150;2024-02-04T01:07:19;1000.26;;;7.95;100
75089;BME280;63673;49.928;8.150;2024-02-04T01:08:20;1000.25;;;7.95;100
75089;BME280;63673;49.928;8.150;2024-02-04T01:09:22;1000.28;;;7.94;100
75089;BME280;63673;49.928;8.150;2024-02-04T01:10:24;1000.31;;;7.94;100
75089;BME280;63673;49.928;8.150;2024-02-04T01:11:26;1000.26;;;7.94;100
75089;BME280;63673;49.928;8.150;2024-02-04T01:12:27;1000.33;;;7.94;100
75089;BME280;63673;49.928;8.150;2024-02-04T01:13:29;1000.39;;;7.94;100
75089;BME280;63673;49.928;8.150;2024-02-04T01:14:31;1000.39;;;7.94;100
75089;BME280;63673;49.928;8.150;2024-02-04T01:15:32;1000.39;;;7.94;100
75089;BME280;63673;49.928;8.150;2024-02-04T01:16:34;1000.34;;;7.94;100
75089;BME280;63673;49.928;8.150;2024-02-04T01:17:36;1000.33;;;7.95;100
75089;BME280;63673;49.928;8.150;2024-02-04T01:18:38;1000.36;;;7.95;100
75089;BME280;63673;49.928;8.150;2024-02-04T01:19:40;1000.31;;;7.94;100
75089;BME280;63673;49.928;8.150;2024-02-04T01:20:41;1000.27;;;7.94;100
75089;BME280;63673;49.928;8.150;2024-02-04T01:21:43;1000.38;;;7.95;100
75089;BME280;63673;49.928;8.150;2024-02-04T01:22:45;1000.37;;;7.95;100
75089;BME280;63673;49.928;8.150;2024-02-04T01:23:47;1000.36;;;7.96;100
75089;BME280;63673;49.928;8.150;2024-02-04T01:24:48;1000.34;;;7.96;100
75089;BME280;63673;49.928;8.150;2024-02-04T01:25:50;1000.36;;;7.96;100
75089;BME280;63673;49.928;8.150;2024-02-04T01:26:51;1000.34;;;7.97;100
75089;BME280;63673;49.928;8.150;2024-02-04T01:27:53;1000.3;;;7.97;100
75089;BME280;63673;49.928;8.150;2024-02-04T01:28:55;1000.31;;;7.98;100
75089;BME280;63673;49.928;8.150;2024-02-04T01:29:57;1000.28;;;7.98;100
75089;BME280;63673;49.928;8.150;2024-02-04T01:30:58;1000.27;;;7.98;100
75089;BME280;63673;49.928;8.150;2024-02-04T01:32:00;1000.28;;;7.98;100
75089;BME280;63673;49.928;8.150;2024-02-04T01:33:02;1000.26;;;7.99;100
75089;BME280;63673;49.928;8.150;2024-02-04T01:34:04;1000.21;;;7.99;100
75089;BME280;63673;49.928;8.150;2024-02-04T01:35:06;1000.28;;;8;100
75089;BME280;63673;49.928;8.150;2024-02-04T01:36:07;1000.33;;;8.01;100
75089;BME280;63673;49.928;8.150;2024-02-04T01:37:09;1000.32;;;8.01;100
75089;BME280;63673;49.928;8.150;2024-02-04T01:38:11;1000.41;;;8.01;100
75089;BME280;63673;49.928;8.150;2024-02-04T01:39:12;1000.42;;;8.02;100
75089;BME280;63673;49.928;8.150;2024-02-04T01:40:14;1000.46;;;8.03;100
75089;BME280;63673;49.928;8.150;2024-02-04T01:41:16;1000.52;;;8.03;100
75089;BME280;63673;49.928;8.150;2024-02-04T01:42:18;1000.56;;;8.04;100
75089;BME280;63673;49.928;8.150;2024-02-04T01:43:19;1000.64;;;8.04;100
75089;BME280;63673;49.928;8.150;2024-02-04T01:44:21;1000.59;;;8.05;100
75089;BME280;63673;49.928;8.150;2024-02-04T01:45:23;1000.53;;;8.05;100
75089;BME280;63673;49.928;8.150;2024-02-04T01:46:24;1000.55;;;8.06;100
75089;BME280;63673;49.928;8.150;2024-02-04T01:47:26;1000.54;;;8.06;100
75089;BME280;63673;49.928;8.150;2024-02-04T01:48:28;1000.59;;;8.07;100
75089;BME280;63673;49.928;8.150;2024-02-04T01:49:30;1000.57;;;8.08;100
75089;BME280;63673;49.928;8.150;2024-02-04T01:50:31;1000.56;;;8.08;100
75089;BME280;63673;49.928;8.150;2024-02-04T01:51:33;1000.56;;;8.09;100
75089;BME280;63673;49.928;8.150;2024-02-04T01:52:36;1000.59;;;8.1;100
75089;BME280;63673;49.928;8.150;2024-02-04T01:53:37;1000.55;;;8.1;100
75089;BME280;63673;49.928;8.150;2024-02-04T01:54:38;1000.55;;;8.11;100
75089;BME280;63673;49.928;8.150;2024-02-04T01:55:40;1000.55;;;8.11;100
75089;BME280;63673;49.928;8.150;2024-02-04T01:56:42;1000.56;;;8.11;100
75089;BME280;63673;49.928;8.150;2024-02-04T01:57:44;1000.52;;;8.11;100
75089;BME280;63673;49.928;8.150;2024-02-04T01:58:45;1000.54;;;8.12;100
75089;BME280;63673;49.928;8.150;2024-02-04T01:59:47;1000.57;;;8.13;100
75089;BME280;63673;49.928;8.150;2024-02-04T02:00:49;1000.57;;;8.13;100
75089;BME280;63673;49.928;8.150;2024-02-04T02:01:50;1000.58;;;8.14;100
75089;BME280;63673;49.928;8.150;2024-02-04T02:02:52;1000.63;;;8.14;100
75089;BME280;63673;49.928;8.150;2024-02-04T02:03:54;1000.62;;;8.14;100
75089;BME280;63673;49.928;8.150;2024-02-04T02:04:56;1000.61;;;8.15;100
75089;BME280;63673;49.928;8.150;2024-02-04T02:05:58;1000.62;;;8.14;100
75089;BME280;63673;49.928;8.150;2024-02-04T02:06:59;1000.63;;;8.15;100
75089;BME280;63673;49.928;8.150;2024-02-04T02:08:01;1000.58;;;8.15;100
75089;BME280;63673;49.928;8.150;2024-02-04T02:09:03;1000.57;;;8.15;100
75089;BME280;63673;49.928;8.150;2024-02-04T02:10:05;1000.49;;;8.13;100
75089;BME280;63673;49.928;8.150;2024-02-04T02:11:08;1000.51;;;8.12;100
75089;BME280;63673;49.928;8.150;2024-02-04T02:12:09;1000.49;;;8.13;100
75089;BME280;63673;49.928;8.150;2024-02-04T02:13:11;1000.47;;;8.11;100
75089;BME280;63673;49.928;8.150;2024-02-04T02:14:13;1000.43;;;8.11;100
75089;BME280;63673;49.928;8.150;2024-02-04T02:15:14;1000.41;;;8.09;100
75089;BME280;63673;49.928;8.150;2024-02-04T02:16:15;1000.42;;;8.07;100
75089;BME280;63673;49.928;8.150;2024-02-04T02:17:18;1000.37;;;8.06;100
75089;BME280;63673;49.928;8.150;2024-02-04T02:18:19;1000.34;;;8.06;100
75089;BME280;63673;49.928;8.150;2024-02-04T02:19:25;1000.33;;;8.05;100
75089;BME280;63673;49.928;8.150;2024-02-04T02:20:23;1000.26;;;8.04;100
75089;BME280;63673;49.928;8.150;2024-02-04T02:21:26;1000.28;;;8.03;100
75089;BME280;63673;49.928;8.150;2024-02-04T02:22:26;1000.29;;;8.01;100
75089;BME280;63673;49.928;8.150;2024-02-04T02:23:29;1000.26;;;8.01;100
75089;BME280;63673;49.928;8.150;2024-02-04T02:24:31;1000.23;;;8;100
75089;BME280;63673;49.928;8.150;2024-02-04T02:25:30;1000.31;;;7.99;100
75089;BME280;63673;49.928;8.150;2024-02-04T02:26:32;1000.23;;;7.98;100
75089;BME280;63673;49.928;8.150;2024-02-04T02:27:34;1000.25;;;7.97;100
75089;BME280;63673;49.928;8.150;2024-02-04T02:28:35;1000.26;;;7.96;100
75089;BME280;63673;49.928;8.150;2024-02-04T02:29:37;1000.28;;;7.95;100
75089;BME280;63673;49.928;8.150;2024-02-04T02:30:39;1000.24;;;7.95;100
75089;BME280;63673;49.928;8.150;2024-02-04T02:31:41;1000.27;;;7.93;100
75089;BME280;63673;49.928;8.150;2024-02-04T02:32:43;1000.25;;;7.92;100
75089;BME280;63673;49.928;8.150;2024-02-04T02:33:44;1000.29;;;7.92;100
75089;BME280;63673;49.928;8.150;2024-02-04T02:34:46;1000.3;;;7.92;100
75089;BME280;63673;49.928;8.150;2024-02-04T02:35:49;1000.29;;;7.9;100
75089;BME280;63673;49.928;8.150;2024-02-04T02:36:50;1000.31;;;7.9;100
75089;BME280;63673;49.928;8.150;2024-02-04T02:37:53;1000.27;;;7.89;100
75089;BME280;63673;49.928;8.150;2024-02-04T02:38:58;1000.3;;;7.88;100
75089;BME280;63673;49.928;8.150;2024-02-04T02:39:56;1000.32;;;7.87;100
75089;BME280;63673;49.928;8.150;2024-02-04T02:40:58;1000.36;;;7.86;100
75089;BME280;63673;49.928;8.150;2024-02-04T02:41:59;1000.29;;;7.85;100
75089;BME280;63673;49.928;8.150;2024-02-04T02:43:00;1000.15;;;7.84;100
75089;BME280;63673;49.928;8.150;2024-02-04T02:44:02;1000.12;;;7.85;100
75089;BME280;63673;49.928;8.150;2024-02-04T02:45:04;1000.15;;;7.82;100
75089;BME280;63673;49.928;8.150;2024-02-04T02:46:05;1000.05;;;7.83;100
75089;BME280;63673;49.928;8.150;2024-02-04T02:47:07;1000.08;;;7.82;100
75089;BME280;63673;49.928;8.150;2024-02-04T02:48:08;1000.06;;;7.81;100
75089;BME280;63673;49.928;8.150;2024-02-04T02:49:10;1000.01;;;7.81;100
75089;BME280;63673;49.928;8.150;2024-02-04T02:50:12;1000;;;7.8;100
75089;BME280;63673;49.928;8.150;2024-02-04T02:51:14;1000.01;;;7.79;100
75089;BME280;63673;49.928;8.150;2024-02-04T02:52:15;999.95;;;7.79;100
75089;BME280;63673;49.928;8.150;2024-02-04T02:53:17;999.98;;;7.78;100
75089;BME280;63673;49.928;8.150;2024-02-04T02:54:19;999.99;;;7.77;100
75089;BME280;63673;49.928;8.150;2024-02-04T02:55:21;999.99;;;7.78;100
75089;BME280;63673;49.928;8.150;2024-02-04T02:56:22;999.97;;;7.78;100
75089;BME280;63673;49.928;8.150;2024-02-04T02:57:24;1000.01;;;7.77;100
75089;BME280;63673;49.928;8.150;2024-02-04T02:58:26;999.9;;;7.77;100
75089;BME280;63673;49.928;8.150;2024-02-04T02:59:27;999.95;;;7.77;100
75089;BME280;63673;49.928;8.150;2024-02-04T03:00:29;999.97;;;7.76;100
75089;BME280;63673;49.928;8.150;2024-02-04T03:01:31;999.93;;;7.76;100
75089;BME280;63673;49.928;8.150;2024-02-04T03:02:33;999.9;;;7.76;100
75089;BME280;63673;49.928;8.150;2024-02-04T03:03:34;999.85;;;7.75;100
75089;BME280;63673;49.928;8.150;2024-02-04T03:04:36;999.85;;;7.76;100
75089;BME280;63673;49.928;8.150;2024-02-04T03:05:38;999.85;;;7.76;100
75089;BME280;63673;49.928;8.150;2024-02-04T03:06:40;999.79;;;7.76;100
75089;BME280;63673;49.928;8.150;2024-02-04T03:07:41;999.79;;;7.76;100
75089;BME280;63673;49.928;8.150;2024-02-04T03:08:43;999.8;;;7.75;100
75089;BME280;63673;49.928;8.150;2024-02-04T03:09:45;999.73;;;7.76;100
75089;BME280;63673;49.928;8.150;2024-02-04T03:10:47;999.78;;;7.76;100
75089;BME280;63673;49.928;8.150;2024-02-04T03:11:48;999.77;;;7.76;100
75089;BME280;63673;49.928;8.150;2024-02-04T03:12:50;999.73;;;7.77;100
75089;BME280;63673;49.928;8.150;2024-02-04T03:13:52;999.69;;;7.76;100
75089;BME280;63673;49.928;8.150;2024-02-04T03:14:53;999.63;;;7.77;100
75089;BME280;63673;49.928;8.150;2024-02-04T03:15:55;999.67;;;7.76;100
75089;BME280;63673;49.928;8.150;2024-02-04T03:16:57;999.67;;;7.77;100
75089;BME280;63673;49.928;8.150;2024-02-04T03:17:59;999.66;;;7.77;100
75089;BME280;63673;49.928;8.150;2024-02-04T03:19:04;999.69;;;7.77;100
75089;BME280;63673;49.928;8.150;2024-02-04T03:20:02;999.71;;;7.77;100
75089;BME280;63673;49.928;8.150;2024-02-04T03:21:04;999.71;;;7.77;100
75089;BME280;63673;49.928;8.150;2024-02-04T03:22:06;999.75;;;7.78;100
75089;BME280;63673;49.928;8.150;2024-02-04T03:23:07;999.74;;;7.79;100
75089;BME280;63673;49.928;8.150;2024-02-04T03:24:09;999.71;;;7.79;100
75089;BME280;63673;49.928;8.150;2024-02-04T03:25:11;999.73;;;7.8;100
75089;BME280;63673;49.928;8.150;2024-02-04T03:26:15;999.7;;;7.8;100
75089;BME280;63673;49.928;8.150;2024-02-04T03:27:14;999.7;;;7.79;100
75089;BME280;63673;49.928;8.150;2024-02-04T03:28:16;999.69;;;7.8;100
75089;BME280;63673;49.928;8.150;2024-02-04T03:29:18;999.69;;;7.79;100
75089;BME280;63673;49.928;8.150;2024-02-04T03:30:19;999.72;;;7.8;100
75089;BME280;63673;49.928;8.150;2024-02-04T03:31:21;999.73;;;7.81;100
75089;BME280;63673;49.928;8.150;2024-02-04T03:32:23;999.66;;;7.81;100
75089;BME280;63673;49.928;8.150;2024-02-04T03:33:25;999.77;;;7.82;100
75089;BME280;63673;49.928;8.150;2024-02-04T03:34:26;999.75;;;7.83;100
75089;BME280;63673;49.928;8.150;2024-02-04T03:35:28;999.75;;;7.83;100
75089;BME280;63673;49.928;8.150;2024-02-04T03:36:30;999.77;;;7.84;100
75089;BME280;63673;49.928;8.150;2024-02-04T03:37:31;999.75;;;7.84;100
75089;BME280;63673;49.928;8.150;2024-02-04T03:38:33;999.72;;;7.85;100
75089;BME280;63673;49.928;8.150;2024-02-04T03:39:35;999.7;;;7.86;100
75089;BME280;63673;49.928;8.150;2024-02-04T03:40:37;999.66;;;7.86;100
75089;BME280;63673;49.928;8.150;2024-02-04T03:41:38;999.66;;;7.86;100
75089;BME280;63673;49.928;8.150;2024-02-04T03:42:40;999.68;;;7.87;100
75089;BME280;63673;49.928;8.150;2024-02-04T03:43:42;999.72;;;7.87;100
75089;BME280;63673;49.928;8.150;2024-02-04T03:44:44;999.62;;;7.88;100
75089;BME280;63673;49.928;8.150;2024-02-04T03:45:45;999.65;;;7.89;100
75089;BME280;63673;49.928;8.150;2024-02-04T03:46:47;999.66;;;7.89;100
75089;BME280;63673;49.928;8.150;2024-02-04T03:47:49;999.73;;;7.89;100
75089;BME280;63673;49.928;8.150;2024-02-04T03:48:51;999.69;;;7.89;100
75089;BME280;63673;49.928;8.150;2024-02-04T03:49:52;999.71;;;7.9;100
75089;BME280;63673;49.928;8.150;2024-02-04T03:50:54;999.75;;;7.9;100
75089;BME280;63673;49.928;8.150;2024-02-04T03:51:56;999.76;;;7.91;100
75089;BME280;63673;49.928;8.150;2024-02-04T03:52:57;999.76;;;7.92;100
75089;BME280;63673;49.928;8.150;2024-02-04T03:53:59;999.76;;;7.92;100
75089;BME280;63673;49.928;8.150;2024-02-04T03:55:01;999.73;;;7.91;100
75089;BME280;63673;49.928;8.150;2024-02-04T03:56:03;999.75;;;7.92;100
75089;BME280;63673;49.928;8.150;2024-02-04T03:57:04;999.84;;;7.92;100
75089;BME280;63673;49.928;8.150;2024-02-04T03:58:06;999.76;;;7.92;100
75089;BME280;63673;49.928;8.150;2024-02-04T03:59:08;999.81;;;7.93;100
75089;BME280;63673;49.928;8.150;2024-02-04T04:00:10;999.78;;;7.93;100
75089;BME280;63673;49.928;8.150;2024-02-04T04:01:11;999.77;;;7.94;100
75089;BME280;63673;49.928;8.150;2024-02-04T04:02:13;999.79;;;7.93;100
75089;BME280;63673;49.928;8.150;2024-02-04T04:03:15;999.86;;;7.93;100
75089;BME280;63673;49.928;8.150;2024-02-04T04:04:17;999.87;;;7.93;100
75089;BME280;63673;49.928;8.150;2024-02-04T04:05:18;999.8;;;7.94;100
75089;BME280;63673;49.928;8.150;2024-02-04T04:06:20;999.89;;;7.94;100
75089;BME280;63673;49.928;8.150;2024-02-04T04:07:22;999.86;;;7.93;100
75089;BME280;63673;49.928;8.150;2024-02-04T04:08:23;999.85;;;7.93;100
75089;BME280;63673;49.928;8.150;2024-02-04T04:09:25;999.82;;;7.93;100
75089;BME280;63673;49.928;8.150;2024-02-04T04:10:27;999.78;;;7.93;100
75089;BME280;63673;49.928;8.150;2024-02-04T04:11:29;999.8;;;7.93;100
75089;BME280;63673;49.928;8.150;2024-02-04T04:12:31;999.8;;;7.93;100
75089;BME280;63673;49.928;8.150;2024-02-04T04:13:32;999.74;;;7.93;100
75089;BME280;63673;49.928;8.150;2024-02-04T04:14:34;999.73;;;7.92;100
75089;BME280;63673;49.928;8.150;2024-02-04T04:15:36;999.79;;;7.92;100
75089;BME280;63673;49.928;8.150;2024-02-04T04:16:37;999.77;;;7.93;100
75089;BME280;63673;49.928;8.150;2024-02-04T04:17:39;999.68;;;7.92;100
75089;BME280;63673;49.928;8.150;2024-02-04T04:18:41;999.74;;;7.92;100
75089;BME280;63673;49.928;8.150;2024-02-04T04:19:43;999.68;;;7.93;100
75089;BME280;63673;49.928;8.150;2024-02-04T04:20:44;999.76;;;7.92;100
75089;BME280;63673;49.928;8.150;2024-02-04T04:21:46;999.75;;;7.92;100
75089;BME280;63673;49.928;8.150;2024-02-04T04:22:48;999.82;;;7.92;100
75089;BME280;63673;49.928;8.150;2024-02-04T04:23:49;999.73;;;7.92;100
75089;BME280;63673;49.928;8.150;2024-02-04T04:24:51;999.79;;;7.92;100
75089;BME280;63673;49.928;8.150;2024-02-04T04:25:53;999.71;;;7.92;100
75089;BME280;63673;49.928;8.150;2024-02-04T04:26:55;999.77;;;7.92;100
75089;BME280;63673;49.928;8.150;2024-02-04T04:27:56;999.67;;;7.92;100
75089;BME280;63673;49.928;8.150;2024-02-04T04:28:58;999.77;;;7.93;100
75089;BME280;63673;49.928;8.150;2024-02-04T04:30:00;999.78;;;7.92;100
75089;BME280;63673;49.928;8.150;2024-02-04T04:31:02;999.77;;;7.92;100
75089;BME280;63673;49.928;8.150;2024-02-04T04:32:04;999.72;;;7.92;100
75089;BME280;63673;49.928;8.150;2024-02-04T04:33:05;999.75;;;7.93;100
75089;BME280;63673;49.928;8.150;2024-02-04T04:34:07;999.76;;;7.92;100
75089;BME280;63673;49.928;8.150;2024-02-04T04:35:09;999.64;;;7.92;100
75089;BME280;63673;49.928;8.150;2024-02-04T04:36:10;999.68;;;7.92;100
75089;BME280;63673;49.928;8.150;2024-02-04T04:37:12;999.69;;;7.93;100
75089;BME280;63673;49.928;8.150;2024-02-04T04:38:14;999.7;;;7.93;100
75089;BME280;63673;49.928;8.150;2024-02-04T04:39:15;999.71;;;7.93;100
75089;BME280;63673;49.928;8.150;2024-02-04T04:40:17;999.71;;;7.93;100
75089;BME280;63673;49.928;8.150;2024-02-04T04:41:19;999.71;;;7.93;100
75089;BME280;63673;49.928;8.150;2024-02-04T04:42:21;999.69;;;7.94;100
75089;BME280;63673;49.928;8.150;2024-02-04T04:43:22;999.59;;;7.94;100
75089;BME280;63673;49.928;8.150;2024-02-04T04:44:24;999.63;;;7.93;100
75089;BME280;63673;49.928;8.150;2024-02-04T04:45:26;999.62;;;7.93;100
75089;BME280;63673;49.928;8.150;2024-02-04T04:46:28;999.67;;;7.94;100
75089;BME280;63673;49.928;8.150;2024-02-04T04:47:30;999.69;;;7.94;100
75089;BME280;63673;49.928;8.150;2024-02-04T04:48:31;999.7;;;7.94;100
75089;BME280;63673;49.928;8.150;2024-02-04T04:49:33;999.65;;;7.95;100
75089;BME280;63673;49.928;8.150;2024-02-04T04:50:35;999.68;;;7.95;100
75089;BME280;63673;49.928;8.150;2024-02-04T04:51:36;999.69;;;7.94;100
75089;BME280;63673;49.928;8.150;2024-02-04T04:52:38;999.59;;;7.94;100
75089;BME280;63673;49.928;8.150;2024-02-04T04:53:40;999.54;;;7.95;100
75089;BME280;63673;49.928;8.150;2024-02-04T04:54:41;999.5;;;7.95;100
75089;BME280;63673;49.928;8.150;2024-02-04T04:55:43;999.51;;;7.95;100
75089;BME280;63673;49.928;8.150;2024-02-04T04:56:45;999.55;;;7.95;100
75089;BME280;63673;49.928;8.150;2024-02-04T04:57:47;999.52;;;7.95;100
75089;BME280;63673;49.928;8.150;2024-02-04T04:58:48;999.48;;;7.95;100
75089;BME280;63673;49.928;8.150;2024-02-04T04:59:50;999.41;;;7.96;100
75089;BME280;63673;49.928;8.150;2024-02-04T05:00:52;999.37;;;7.97;100
75089;BME280;63673;49.928;8.150;2024-02-04T05:01:54;999.44;;;7.96;100
75089;BME280;63673;49.928;8.150;2024-02-04T05:02:55;999.45;;;7.96;100
75089;BME280;63673;49.928;8.150;2024-02-04T05:03:57;999.41;;;7.96;100
75089;BME280;63673;49.928;8.150;2024-02-04T05:04:59;999.41;;;7.96;100
75089;BME280;63673;49.928;8.150;2024-02-04T05:06:01;999.48;;;7.96;100
75089;BME280;63673;49.928;8.150;2024-02-04T05:07:02;999.52;;;7.96;100
75089;BME280;63673;49.928;8.150;2024-02-04T05:08:04;999.55;;;7.96;100
75089;BME280;63673;49.928;8.150;2024-02-04T05:09:06;999.52;;;7.97;100
75089;BME280;63673;49.928;8.150;2024-02-04T05:10:08;999.61;;;7.97;100
75089;BME280;63673;49.928;8.150;2024-02-04T05:11:09;999.58;;;7.97;100
75089;BME280;63673;49.928;8.150;2024-02-04T05:12:11;999.64;;;7.97;100
75089;BME280;63673;49.928;8.150;2024-02-04T05:13:13;999.55;;;7.99;100
75089;BME280;63673;49.928;8.150;2024-02-04T05:14:14;999.66;;;8;100
75089;BME280;63673;49.928;8.150;2024-02-04T05:15:16;999.66;;;7.99;100
75089;BME280;63673;49.928;8.150;2024-02-04T05:16:18;999.68;;;8;100
75089;BME280;63673;49.928;8.150;2024-02-04T05:17:20;999.7;;;7.99;100
75089;BME280;63673;49.928;8.150;2024-02-04T05:18:21;999.66;;;7.99;100
75089;BME280;63673;49.928;8.150;2024-02-04T05:19:23;999.66;;;8;100
75089;BME280;63673;49.928;8.150;2024-02-04T05:20:25;999.64;;;8;100
75089;BME280;63673;49.928;8.150;2024-02-04T05:21:27;999.62;;;8;100
75089;BME280;63673;49.928;8.150;2024-02-04T05:22:28;999.66;;;7.99;100
75089;BME280;63673;49.928;8.150;2024-02-04T05:23:30;999.58;;;8;100
75089;BME280;63673;49.928;8.150;2024-02-04T05:24:32;999.66;;;8;100
75089;BME280;63673;49.928;8.150;2024-02-04T05:25:34;999.65;;;8;100
75089;BME280;63673;49.928;8.150;2024-02-04T05:26:35;999.56;;;8.01;100
75089;BME280;63673;49.928;8.150;2024-02-04T05:27:37;999.55;;;8;100
75089;BME280;63673;49.928;8.150;2024-02-04T05:28:39;999.52;;;8.01;100
75089;BME280;63673;49.928;8.150;2024-02-04T05:29:40;999.6;;;8.02;100
75089;BME280;63673;49.928;8.150;2024-02-04T05:30:42;999.55;;;8.01;100
75089;BME280;63673;49.928;8.150;2024-02-04T05:31:44;999.55;;;8.02;100
75089;BME280;63673;49.928;8.150;2024-02-04T05:32:46;999.6;;;8.03;100
75089;BME280;63673;49.928;8.150;2024-02-04T05:33:47;999.66;;;8.01;100
75089;BME280;63673;49.928;8.150;2024-02-04T05:34:49;999.67;;;8.02;100
75089;BME280;63673;49.928;8.150;2024-02-04T05:35:51;999.65;;;8.03;100
75089;BME280;63673;49.928;8.150;2024-02-04T05:36:53;999.69;;;8.03;100
75089;BME280;63673;49.928;8.150;2024-02-04T05:37:54;999.7;;;8.03;100
75089;BME280;63673;49.928;8.150;2024-02-04T05:38:56;999.71;;;8.04;100
75089;BME280;63673;49.928;8.150;2024-02-04T05:39:58;999.76;;;8.04;100
75089;BME280;63673;49.928;8.150;2024-02-04T05:40:59;999.81;;;8.04;100
75089;BME280;63673;49.928;8.150;2024-02-04T05:42:01;999.78;;;8.04;100
75089;BME280;63673;49.928;8.150;2024-02-04T05:43:03;999.79;;;8.04;100
75089;BME280;63673;49.928;8.150;2024-02-04T05:44:05;999.82;;;8.03;100
75089;BME280;63673;49.928;8.150;2024-02-04T05:45:07;999.79;;;8.03;100
75089;BME280;63673;49.928;8.150;2024-02-04T05:46:08;999.8;;;8.03;100
75089;BME280;63673;49.928;8.150;2024-02-04T05:47:10;999.8;;;8.04;100
75089;BME280;63673;49.928;8.150;2024-02-04T05:48:12;999.77;;;8.04;100
75089;BME280;63673;49.928;8.150;2024-02-04T05:49:13;999.73;;;8.04;100